sensor_id;sensor_type;location;lat;lon;timestamp;P1;durP1;ratioP1;P2;durP2;ratioP2
34914;SDS011;21125;48.630;9.276;2022-08-18T00:00:32;12.02;;;10.90;;
34914;SDS011;21125;48.630;9.276;2022-08-18T00:02:59;13.68;;;12.40;;
34914;SDS011;21125;48.630;9.276;2022-08-18T00:05:25;12.10;;;11.00;;
34914;SDS011;21125;48.630;9.276;2022-08-18T00:07:51;13.18;;;11.88;;
34914;SDS011;21125;48.630;9.276;2022-08-18T00:10:17;13.98;;;12.60;;
34914;SDS011;21125;48.630;9.276;2022-08-18T00:12:43;14.80;;;13.45;;
34914;SDS011;21125;48.630;9.276;2022-08-18T00:15:10;17.80;;;11.25;;
34914;SDS011;21125;48.630;9.276;2022-08-18T00:17:37;13.18;;;11.70;;
34914;SDS011;21125;48.630;9.276;2022-08-18T00:20:04;14.18;;;12.85;;
34914;SDS011;21125;48.630;9.276;2022-08-18T00:22:31;13.68;;;12.48;;
34914;SDS011;21125;48.630;9.276;2022-08-18T00:24:57;13.57;;;12.18;;
34914;SDS011;21125;48.630;9.276;2022-08-18T00:27:27;11.80;;;10.70;;
34914;SDS011;21125;48.630;9.276;2022-08-18T00:29:54;14.57;;;11.43;;
34914;SDS011;21125;48.630;9.276;2022-08-18T00:32:22;13.25;;;11.73;;
34914;SDS011;21125;48.630;9.276;2022-08-18T00:34:48;13.73;;;12.38;;
34914;SDS011;21125;48.630;9.276;2022-08-18T00:37:14;12.77;;;11.60;;
34914;SDS011;21125;48.630;9.276;2022-08-18T00:39:40;13.95;;;12.55;;
34914;SDS011;21125;48.630;9.276;2022-08-18T00:44:38;12.18;;;10.93;;
34914;SDS011;21125;48.630;9.276;2022-08-18T00:47:04;13.73;;;12.35;;
34914;SDS011;21125;48.630;9.276;2022-08-18T00:49:30;12.50;;;11.35;;
34914;SDS011;21125;48.630;9.276;2022-08-18T00:51:56;12.00;;;10.75;;
34914;SDS011;21125;48.630;9.276;2022-08-18T00:54:23;13.48;;;12.10;;
34914;SDS011;21125;48.630;9.276;2022-08-18T00:56:51;14.90;;;11.73;;
34914;SDS011;21125;48.630;9.276;2022-08-18T01:01:45;13.68;;;12.40;;
34914;SDS011;21125;48.630;9.276;2022-08-18T01:04:15;12.60;;;10.90;;
34914;SDS011;21125;48.630;9.276;2022-08-18T01:09:08;15.25;;;12.00;;
34914;SDS011;21125;48.630;9.276;2022-08-18T01:11:35;12.80;;;11.52;;
34914;SDS011;21125;48.630;9.276;2022-08-18T01:14:03;13.93;;;11.60;;
34914;SDS011;21125;48.630;9.276;2022-08-18T01:16:29;13.48;;;12.13;;
34914;SDS011;21125;48.630;9.276;2022-08-18T01:22:01;14.00;;;12.70;;
34914;SDS011;21125;48.630;9.276;2022-08-18T01:24:30;15.15;;;13.65;;
34914;SDS011;21125;48.630;9.276;2022-08-18T01:27:17;14.40;;;12.90;;
34914;SDS011;21125;48.630;9.276;2022-08-18T01:29:43;15.13;;;13.63;;
34914;SDS011;21125;48.630;9.276;2022-08-18T01:32:11;15.05;;;13.25;;
34914;SDS011;21125;48.630;9.276;2022-08-18T01:34:38;15.95;;;14.43;;
34914;SDS011;21125;48.630;9.276;2022-08-18T01:37:04;15.25;;;13.75;;
34914;SDS011;21125;48.630;9.276;2022-08-18T01:39:30;14.85;;;13.38;;
34914;SDS011;21125;48.630;9.276;2022-08-18T01:41:56;15.60;;;14.18;;
34914;SDS011;21125;48.630;9.276;2022-08-18T01:44:22;14.63;;;13.30;;
34914;SDS011;21125;48.630;9.276;2022-08-18T01:46:48;15.77;;;13.20;;
34914;SDS011;21125;48.630;9.276;2022-08-18T01:49:17;14.23;;;12.93;;
34914;SDS011;21125;48.630;9.276;2022-08-18T01:51:43;15.68;;;13.95;;
34914;SDS011;21125;48.630;9.276;2022-08-18T01:54:12;15.20;;;13.63;;
34914;SDS011;21125;48.630;9.276;2022-08-18T01:56:39;15.13;;;13.63;;
34914;SDS011;21125;48.630;9.276;2022-08-18T01:59:06;15.43;;;13.93;;
34914;SDS011;21125;48.630;9.276;2022-08-18T02:01:38;15.20;;;13.70;;
34914;SDS011;21125;48.630;9.276;2022-08-18T02:04:04;15.93;;;13.43;;
34914;SDS011;21125;48.630;9.276;2022-08-18T02:06:33;14.85;;;13.48;;
34914;SDS011;21125;48.630;9.276;2022-08-18T02:08:59;14.77;;;13.32;;
34914;SDS011;21125;48.630;9.276;2022-08-18T02:11:25;15.02;;;13.57;;
34914;SDS011;21125;48.630;9.276;2022-08-18T02:13:51;15.90;;;14.18;;
34914;SDS011;21125;48.630;9.276;2022-08-18T02:16:17;15.15;;;13.50;;
34914;SDS011;21125;48.630;9.276;2022-08-18T02:18:43;16.63;;;15.07;;
34914;SDS011;21125;48.630;9.276;2022-08-18T02:21:13;15.05;;;13.57;;
34914;SDS011;21125;48.630;9.276;2022-08-18T02:23:40;15.40;;;13.90;;
34914;SDS011;21125;48.630;9.276;2022-08-18T02:26:08;14.30;;;12.98;;
34914;SDS011;21125;48.630;9.276;2022-08-18T02:28:34;14.52;;;13.07;;
34914;SDS011;21125;48.630;9.276;2022-08-18T02:31:04;14.48;;;13.18;;
34914;SDS011;21125;48.630;9.276;2022-08-18T02:33:30;13.68;;;12.27;;
34914;SDS011;21125;48.630;9.276;2022-08-18T02:35:56;12.90;;;11.70;;
34914;SDS011;21125;48.630;9.276;2022-08-18T02:38:22;11.45;;;10.35;;
34914;SDS011;21125;48.630;9.276;2022-08-18T02:40:59;11.07;;;10.02;;
34914;SDS011;21125;48.630;9.276;2022-08-18T02:43:25;12.57;;;11.27;;
34914;SDS011;21125;48.630;9.276;2022-08-18T02:45:52;11.57;;;10.48;;
34914;SDS011;21125;48.630;9.276;2022-08-18T02:48:18;11.38;;;10.38;;
34914;SDS011;21125;48.630;9.276;2022-08-18T02:51:03;11.63;;;10.55;;
34914;SDS011;21125;48.630;9.276;2022-08-18T02:53:30;10.38;;;9.38;;
34914;SDS011;21125;48.630;9.276;2022-08-18T02:56:03;10.77;;;9.77;;
34914;SDS011;21125;48.630;9.276;2022-08-18T02:58:34;10.98;;;9.98;;
34914;SDS011;21125;48.630;9.276;2022-08-18T03:01:00;10.10;;;9.13;;
34914;SDS011;21125;48.630;9.276;2022-08-18T03:03:26;9.63;;;8.80;;
34914;SDS011;21125;48.630;9.276;2022-08-18T03:05:52;9.23;;;8.32;;
34914;SDS011;21125;48.630;9.276;2022-08-18T03:08:18;10.27;;;9.23;;
34914;SDS011;21125;48.630;9.276;2022-08-18T03:10:44;10.23;;;9.30;;
34914;SDS011;21125;48.630;9.276;2022-08-18T03:13:10;10.02;;;9.23;;
34914;SDS011;21125;48.630;9.276;2022-08-18T03:15:35;11.07;;;9.68;;
34914;SDS011;21125;48.630;9.276;2022-08-18T03:18:01;10.10;;;9.13;;
34914;SDS011;21125;48.630;9.276;2022-08-18T03:20:27;10.13;;;9.15;;
34914;SDS011;21125;48.630;9.276;2022-08-18T03:22:53;10.38;;;9.43;;
34914;SDS011;21125;48.630;9.276;2022-08-18T03:25:19;10.70;;;9.60;;
34914;SDS011;21125;48.630;9.276;2022-08-18T03:27:45;11.80;;;10.70;;
34914;SDS011;21125;48.630;9.276;2022-08-18T03:30:11;12.48;;;9.98;;
34914;SDS011;21125;48.630;9.276;2022-08-18T03:32:38;11.02;;;9.95;;
34914;SDS011;21125;48.630;9.276;2022-08-18T03:35:04;12.30;;;10.55;;
34914;SDS011;21125;48.630;9.276;2022-08-18T03:37:30;12.18;;;10.68;;
34914;SDS011;21125;48.630;9.276;2022-08-18T03:39:57;12.05;;;10.85;;
34914;SDS011;21125;48.630;9.276;2022-08-18T03:42:23;10.80;;;9.70;;
34914;SDS011;21125;48.630;9.276;2022-08-18T03:44:49;11.55;;;10.35;;
34914;SDS011;21125;48.630;9.276;2022-08-18T03:47:15;10.38;;;9.32;;
34914;SDS011;21125;48.630;9.276;2022-08-18T03:49:41;10.43;;;9.52;;
34914;SDS011;21125;48.630;9.276;2022-08-18T03:52:07;10.77;;;9.77;;
34914;SDS011;21125;48.630;9.276;2022-08-18T03:54:34;10.25;;;9.35;;
34914;SDS011;21125;48.630;9.276;2022-08-18T03:57:00;12.10;;;10.90;;
34914;SDS011;21125;48.630;9.276;2022-08-18T03:59:26;10.82;;;9.82;;
34914;SDS011;21125;48.630;9.276;2022-08-18T04:01:54;10.40;;;9.32;;
34914;SDS011;21125;48.630;9.276;2022-08-18T04:04:21;10.98;;;9.93;;
34914;SDS011;21125;48.630;9.276;2022-08-18T04:06:48;10.80;;;9.90;;
34914;SDS011;21125;48.630;9.276;2022-08-18T04:09:15;10.70;;;9.70;;
34914;SDS011;21125;48.630;9.276;2022-08-18T04:11:45;10.40;;;9.27;;
34914;SDS011;21125;48.630;9.276;2022-08-18T04:14:12;10.25;;;9.35;;
34914;SDS011;21125;48.630;9.276;2022-08-18T04:16:38;9.65;;;8.75;;
34914;SDS011;21125;48.630;9.276;2022-08-18T04:19:04;10.25;;;9.25;;
34914;SDS011;21125;48.630;9.276;2022-08-18T04:21:31;10.70;;;9.38;;
34914;SDS011;21125;48.630;9.276;2022-08-18T04:23:58;13.00;;;10.27;;
34914;SDS011;21125;48.630;9.276;2022-08-18T04:26:32;11.20;;;10.15;;
34914;SDS011;21125;48.630;9.276;2022-08-18T04:28:59;10.38;;;9.40;;
34914;SDS011;21125;48.630;9.276;2022-08-18T04:31:25;11.88;;;10.55;;
34914;SDS011;21125;48.630;9.276;2022-08-18T04:33:51;12.48;;;11.27;;
34914;SDS011;21125;48.630;9.276;2022-08-18T04:36:17;11.57;;;9.98;;
34914;SDS011;21125;48.630;9.276;2022-08-18T04:38:43;11.27;;;9.93;;
34914;SDS011;21125;48.630;9.276;2022-08-18T04:41:10;11.30;;;10.20;;
34914;SDS011;21125;48.630;9.276;2022-08-18T04:43:37;10.88;;;9.75;;
34914;SDS011;21125;48.630;9.276;2022-08-18T04:46:03;11.65;;;10.48;;
34914;SDS011;21125;48.630;9.276;2022-08-18T04:48:31;11.90;;;10.63;;
34914;SDS011;21125;48.630;9.276;2022-08-18T04:51:02;11.15;;;9.98;;
34914;SDS011;21125;48.630;9.276;2022-08-18T04:53:28;10.80;;;9.70;;
34914;SDS011;21125;48.630;9.276;2022-08-18T04:56:12;10.90;;;9.60;;
34914;SDS011;21125;48.630;9.276;2022-08-18T04:58:38;10.23;;;8.05;;
34914;SDS011;21125;48.630;9.276;2022-08-18T05:01:04;7.53;;;6.82;;
34914;SDS011;21125;48.630;9.276;2022-08-18T05:03:30;8.13;;;7.43;;
34914;SDS011;21125;48.630;9.276;2022-08-18T05:05:57;7.45;;;6.75;;
34914;SDS011;21125;48.630;9.276;2022-08-18T05:08:24;7.82;;;7.13;;
34914;SDS011;21125;48.630;9.276;2022-08-18T05:10:54;7.53;;;6.85;;
34914;SDS011;21125;48.630;9.276;2022-08-18T05:13:21;7.22;;;6.63;;
34914;SDS011;21125;48.630;9.276;2022-08-18T05:15:51;6.00;;;5.47;;
34914;SDS011;21125;48.630;9.276;2022-08-18T05:18:17;8.30;;;5.43;;
34914;SDS011;21125;48.630;9.276;2022-08-18T05:20:48;7.68;;;6.45;;
34914;SDS011;21125;48.630;9.276;2022-08-18T05:23:15;6.32;;;5.80;;
34914;SDS011;21125;48.630;9.276;2022-08-18T05:25:41;6.50;;;6.00;;
34914;SDS011;21125;48.630;9.276;2022-08-18T05:28:07;6.45;;;5.85;;
34914;SDS011;21125;48.630;9.276;2022-08-18T05:30:33;6.30;;;5.35;;
34914;SDS011;21125;48.630;9.276;2022-08-18T05:33:00;7.10;;;6.45;;
34914;SDS011;21125;48.630;9.276;2022-08-18T05:35:40;7.63;;;5.93;;
34914;SDS011;21125;48.630;9.276;2022-08-18T05:40:41;7.97;;;6.30;;
34914;SDS011;21125;48.630;9.276;2022-08-18T05:43:09;6.40;;;5.90;;
34914;SDS011;21125;48.630;9.276;2022-08-18T05:45:35;6.63;;;5.88;;
34914;SDS011;21125;48.630;9.276;2022-08-18T05:48:04;7.47;;;6.80;;
34914;SDS011;21125;48.630;9.276;2022-08-18T05:50:30;8.77;;;6.43;;
34914;SDS011;21125;48.630;9.276;2022-08-18T05:52:58;7.90;;;6.80;;
34914;SDS011;21125;48.630;9.276;2022-08-18T05:55:31;7.30;;;6.45;;
34914;SDS011;21125;48.630;9.276;2022-08-18T06:00:44;7.35;;;6.65;;
34914;SDS011;21125;48.630;9.276;2022-08-18T06:03:25;7.25;;;6.65;;
34914;SDS011;21125;48.630;9.276;2022-08-18T06:05:55;7.45;;;6.75;;
34914;SDS011;21125;48.630;9.276;2022-08-18T06:08:24;7.65;;;6.88;;
34914;SDS011;21125;48.630;9.276;2022-08-18T06:10:52;9.85;;;7.60;;
34914;SDS011;21125;48.630;9.276;2022-08-18T06:13:19;8.40;;;7.47;;
34914;SDS011;21125;48.630;9.276;2022-08-18T06:15:50;7.55;;;6.95;;
34914;SDS011;21125;48.630;9.276;2022-08-18T06:21:07;8.45;;;7.57;;
34914;SDS011;21125;48.630;9.276;2022-08-18T06:23:47;8.55;;;7.75;;
34914;SDS011;21125;48.630;9.276;2022-08-18T06:26:17;7.75;;;7.05;;
34914;SDS011;21125;48.630;9.276;2022-08-18T06:28:47;7.55;;;6.95;;
34914;SDS011;21125;48.630;9.276;2022-08-18T06:31:19;7.38;;;6.78;;
34914;SDS011;21125;48.630;9.276;2022-08-18T06:33:49;6.90;;;6.20;;
34914;SDS011;21125;48.630;9.276;2022-08-18T06:43:59;6.85;;;6.25;;
34914;SDS011;21125;48.630;9.276;2022-08-18T06:46:30;7.65;;;6.95;;
34914;SDS011;21125;48.630;9.276;2022-08-18T06:48:58;7.60;;;6.90;;
34914;SDS011;21125;48.630;9.276;2022-08-18T06:51:27;6.47;;;5.90;;
34914;SDS011;21125;48.630;9.276;2022-08-18T06:59:17;6.80;;;6.15;;
34914;SDS011;21125;48.630;9.276;2022-08-18T07:01:44;6.85;;;6.32;;
34914;SDS011;21125;48.630;9.276;2022-08-18T07:06:56;7.70;;;7.05;;
34914;SDS011;21125;48.630;9.276;2022-08-18T07:09:23;6.80;;;6.20;;
34914;SDS011;21125;48.630;9.276;2022-08-18T07:12:05;7.55;;;6.93;;
34914;SDS011;21125;48.630;9.276;2022-08-18T07:14:40;7.13;;;6.55;;
34914;SDS011;21125;48.630;9.276;2022-08-18T07:17:11;8.05;;;6.57;;
34914;SDS011;21125;48.630;9.276;2022-08-18T07:19:38;8.43;;;6.97;;
34914;SDS011;21125;48.630;9.276;2022-08-18T07:22:10;8.63;;;7.78;;
34914;SDS011;21125;48.630;9.276;2022-08-18T07:27:13;8.25;;;7.45;;
34914;SDS011;21125;48.630;9.276;2022-08-18T07:32:31;8.50;;;7.63;;
34914;SDS011;21125;48.630;9.276;2022-08-18T07:35:00;9.40;;;8.50;;
34914;SDS011;21125;48.630;9.276;2022-08-18T07:37:35;8.75;;;7.95;;
34914;SDS011;21125;48.630;9.276;2022-08-18T07:42:34;9.70;;;8.90;;
34914;SDS011;21125;48.630;9.276;2022-08-18T07:45:05;9.23;;;8.45;;
34914;SDS011;21125;48.630;9.276;2022-08-18T07:47:38;8.55;;;7.70;;
34914;SDS011;21125;48.630;9.276;2022-08-18T07:50:06;8.75;;;7.95;;
34914;SDS011;21125;48.630;9.276;2022-08-18T07:52:37;9.13;;;8.20;;
34914;SDS011;21125;48.630;9.276;2022-08-18T07:55:14;8.93;;;8.05;;
34914;SDS011;21125;48.630;9.276;2022-08-18T07:57:43;8.07;;;7.43;;
34914;SDS011;21125;48.630;9.276;2022-08-18T08:02:45;7.45;;;6.85;;
34914;SDS011;21125;48.630;9.276;2022-08-18T08:05:16;8.10;;;7.43;;
34914;SDS011;21125;48.630;9.276;2022-08-18T08:07:58;9.73;;;8.80;;
34914;SDS011;21125;48.630;9.276;2022-08-18T08:10:34;8.15;;;7.35;;
34914;SDS011;21125;48.630;9.276;2022-08-18T08:18:26;7.45;;;6.85;;
34914;SDS011;21125;48.630;9.276;2022-08-18T08:20:54;8.05;;;7.30;;
34914;SDS011;21125;48.630;9.276;2022-08-18T08:23:29;6.72;;;6.18;;
34914;SDS011;21125;48.630;9.276;2022-08-18T08:26:07;7.68;;;6.97;;
34914;SDS011;21125;48.630;9.276;2022-08-18T08:28:47;6.97;;;6.38;;
34914;SDS011;21125;48.630;9.276;2022-08-18T08:33:48;7.90;;;7.20;;
34914;SDS011;21125;48.630;9.276;2022-08-18T08:36:20;7.55;;;6.95;;
34914;SDS011;21125;48.630;9.276;2022-08-18T08:38:48;7.05;;;6.35;;
34914;SDS011;21125;48.630;9.276;2022-08-18T08:41:18;7.13;;;6.43;;
34914;SDS011;21125;48.630;9.276;2022-08-18T08:43:52;6.82;;;6.13;;
34914;SDS011;21125;48.630;9.276;2022-08-18T08:46:21;6.18;;;5.57;;
34914;SDS011;21125;48.630;9.276;2022-08-18T08:48:49;7.22;;;6.57;;
34914;SDS011;21125;48.630;9.276;2022-08-18T08:51:25;7.10;;;6.40;;
34914;SDS011;21125;48.630;9.276;2022-08-18T08:54:16;6.90;;;6.32;;
34914;SDS011;21125;48.630;9.276;2022-08-18T08:56:42;6.63;;;6.03;;
34914;SDS011;21125;48.630;9.276;2022-08-18T08:59:10;6.88;;;6.28;;
34914;SDS011;21125;48.630;9.276;2022-08-18T09:01:47;7.07;;;6.47;;
34914;SDS011;21125;48.630;9.276;2022-08-18T09:07:07;7.05;;;6.35;;
34914;SDS011;21125;48.630;9.276;2022-08-18T09:12:18;6.60;;;5.82;;
34914;SDS011;21125;48.630;9.276;2022-08-18T09:22:50;7.13;;;6.35;;
34914;SDS011;21125;48.630;9.276;2022-08-18T09:28:15;6.80;;;6.10;;
34914;SDS011;21125;48.630;9.276;2022-08-18T09:33:19;6.15;;;5.38;;
34914;SDS011;21125;48.630;9.276;2022-08-18T09:35:57;6.10;;;5.60;;
34914;SDS011;21125;48.630;9.276;2022-08-18T09:38:25;7.10;;;6.50;;
34914;SDS011;21125;48.630;9.276;2022-08-18T09:41:13;7.88;;;7.28;;
34914;SDS011;21125;48.630;9.276;2022-08-18T09:44:05;7.10;;;6.50;;
34914;SDS011;21125;48.630;9.276;2022-08-18T09:54:21;6.25;;;5.75;;
34914;SDS011;21125;48.630;9.276;2022-08-18T10:01:55;8.13;;;7.43;;
34914;SDS011;21125;48.630;9.276;2022-08-18T10:04:25;7.40;;;6.80;;
34914;SDS011;21125;48.630;9.276;2022-08-18T10:06:52;6.97;;;6.47;;
34914;SDS011;21125;48.630;9.276;2022-08-18T10:12:08;7.65;;;7.10;;
34914;SDS011;21125;48.630;9.276;2022-08-18T10:24:22;9.13;;;8.40;;
34914;SDS011;21125;48.630;9.276;2022-08-18T10:36:59;9.60;;;8.80;;
34914;SDS011;21125;48.630;9.276;2022-08-18T10:42:13;10.52;;;9.70;;
34914;SDS011;21125;48.630;9.276;2022-08-18T10:44:43;9.90;;;9.02;;
34914;SDS011;21125;48.630;9.276;2022-08-18T10:47:18;9.65;;;8.75;;
34914;SDS011;21125;48.630;9.276;2022-08-18T10:49:47;10.40;;;9.40;;
34914;SDS011;21125;48.630;9.276;2022-08-18T10:52:33;11.52;;;10.52;;
34914;SDS011;21125;48.630;9.276;2022-08-18T11:00:12;10.23;;;9.43;;
34914;SDS011;21125;48.630;9.276;2022-08-18T11:05:15;9.27;;;8.48;;
34914;SDS011;21125;48.630;9.276;2022-08-18T11:07:45;10.27;;;9.38;;
34914;SDS011;21125;48.630;9.276;2022-08-18T11:12:52;12.93;;;9.48;;
34914;SDS011;21125;48.630;9.276;2022-08-18T11:15:27;9.38;;;8.32;;
34914;SDS011;21125;48.630;9.276;2022-08-18T11:18:18;8.50;;;7.80;;
34914;SDS011;21125;48.630;9.276;2022-08-18T11:20:47;9.02;;;8.13;;
34914;SDS011;21125;48.630;9.276;2022-08-18T11:23:15;10.55;;;9.55;;
34914;SDS011;21125;48.630;9.276;2022-08-18T11:25:42;8.35;;;7.65;;
34914;SDS011;21125;48.630;9.276;2022-08-18T11:28:19;10.60;;;9.65;;
34914;SDS011;21125;48.630;9.276;2022-08-18T11:30:47;9.65;;;8.60;;
34914;SDS011;21125;48.630;9.276;2022-08-18T11:33:15;10.75;;;7.35;;
34914;SDS011;21125;48.630;9.276;2022-08-18T11:35:46;8.05;;;7.07;;
34914;SDS011;21125;48.630;9.276;2022-08-18T11:38:13;8.23;;;7.43;;
34914;SDS011;21125;48.630;9.276;2022-08-18T11:40:40;6.63;;;6.00;;
34914;SDS011;21125;48.630;9.276;2022-08-18T11:43:11;6.93;;;6.32;;
34914;SDS011;21125;48.630;9.276;2022-08-18T11:50:44;6.55;;;6.05;;
34914;SDS011;21125;48.630;9.276;2022-08-18T11:53:15;7.93;;;7.32;;
34914;SDS011;21125;48.630;9.276;2022-08-18T11:55:42;6.60;;;6.10;;
34914;SDS011;21125;48.630;9.276;2022-08-18T11:58:08;7.05;;;6.40;;
34914;SDS011;21125;48.630;9.276;2022-08-18T12:03:02;6.85;;;6.35;;
34914;SDS011;21125;48.630;9.276;2022-08-18T12:05:28;6.75;;;6.25;;
34914;SDS011;21125;48.630;9.276;2022-08-18T12:07:54;7.82;;;6.80;;
34914;SDS011;21125;48.630;9.276;2022-08-18T12:10:21;8.65;;;6.47;;
34914;SDS011;21125;48.630;9.276;2022-08-18T12:12:49;7.00;;;6.50;;
34914;SDS011;21125;48.630;9.276;2022-08-18T12:17:43;7.18;;;6.55;;
34914;SDS011;21125;48.630;9.276;2022-08-18T12:20:09;11.43;;;6.88;;
34914;SDS011;21125;48.630;9.276;2022-08-18T12:22:36;7.57;;;6.85;;
34914;SDS011;21125;48.630;9.276;2022-08-18T12:25:04;7.40;;;6.80;;
34914;SDS011;21125;48.630;9.276;2022-08-18T12:27:30;8.00;;;7.30;;
34914;SDS011;21125;48.630;9.276;2022-08-18T12:29:56;8.98;;;8.18;;
34914;SDS011;21125;48.630;9.276;2022-08-18T12:32:25;8.45;;;7.63;;
34914;SDS011;21125;48.630;9.276;2022-08-18T12:34:51;9.18;;;8.35;;
34914;SDS011;21125;48.630;9.276;2022-08-18T12:37:18;9.00;;;7.93;;
34914;SDS011;21125;48.630;9.276;2022-08-18T12:39:45;10.27;;;9.05;;
34914;SDS011;21125;48.630;9.276;2022-08-18T12:42:11;9.63;;;8.85;;
34914;SDS011;21125;48.630;9.276;2022-08-18T12:44:37;10.45;;;9.13;;
34914;SDS011;21125;48.630;9.276;2022-08-18T12:47:06;8.98;;;8.23;;
34914;SDS011;21125;48.630;9.276;2022-08-18T12:49:36;9.68;;;8.40;;
34914;SDS011;21125;48.630;9.276;2022-08-18T12:52:02;9.30;;;8.50;;
34914;SDS011;21125;48.630;9.276;2022-08-18T12:54:28;8.77;;;7.97;;
34914;SDS011;21125;48.630;9.276;2022-08-18T12:56:54;8.45;;;7.63;;
34914;SDS011;21125;48.630;9.276;2022-08-18T12:59:21;8.07;;;7.47;;
34914;SDS011;21125;48.630;9.276;2022-08-18T13:01:48;8.00;;;6.90;;
34914;SDS011;21125;48.630;9.276;2022-08-18T13:04:14;9.60;;;8.80;;
34914;SDS011;21125;48.630;9.276;2022-08-18T13:06:47;9.38;;;8.57;;
34914;SDS011;21125;48.630;9.276;2022-08-18T13:09:14;7.85;;;7.03;;
34914;SDS011;21125;48.630;9.276;2022-08-18T13:11:40;10.43;;;7.25;;
34914;SDS011;21125;48.630;9.276;2022-08-18T13:14:06;7.07;;;6.38;;
34914;SDS011;21125;48.630;9.276;2022-08-18T13:16:33;6.82;;;6.32;;
34914;SDS011;21125;48.630;9.276;2022-08-18T13:18:59;7.40;;;6.82;;
34914;SDS011;21125;48.630;9.276;2022-08-18T13:21:26;6.28;;;5.78;;
34914;SDS011;21125;48.630;9.276;2022-08-18T13:23:52;7.82;;;7.13;;
34914;SDS011;21125;48.630;9.276;2022-08-18T13:26:29;7.50;;;6.65;;
34914;SDS011;21125;48.630;9.276;2022-08-18T13:28:55;7.95;;;7.25;;
34914;SDS011;21125;48.630;9.276;2022-08-18T13:31:22;8.15;;;7.45;;
34914;SDS011;21125;48.630;9.276;2022-08-18T13:33:48;8.02;;;6.95;;
34914;SDS011;21125;48.630;9.276;2022-08-18T13:36:14;7.75;;;7.15;;
34914;SDS011;21125;48.630;9.276;2022-08-18T13:38:40;7.55;;;6.85;;
34914;SDS011;21125;48.630;9.276;2022-08-18T13:41:07;7.30;;;6.70;;
34914;SDS011;21125;48.630;9.276;2022-08-18T13:43:35;8.00;;;7.30;;
34914;SDS011;21125;48.630;9.276;2022-08-18T13:46:02;6.60;;;6.10;;
34914;SDS011;21125;48.630;9.276;2022-08-18T13:48:28;8.40;;;6.88;;
34914;SDS011;21125;48.630;9.276;2022-08-18T13:50:55;7.70;;;7.10;;
34914;SDS011;21125;48.630;9.276;2022-08-18T13:53:22;7.47;;;6.78;;
34914;SDS011;21125;48.630;9.276;2022-08-18T13:55:49;7.95;;;7.18;;
34914;SDS011;21125;48.630;9.276;2022-08-18T13:58:15;7.20;;;6.70;;
34914;SDS011;21125;48.630;9.276;2022-08-18T14:00:41;7.85;;;7.18;;
34914;SDS011;21125;48.630;9.276;2022-08-18T14:03:08;7.18;;;6.47;;
34914;SDS011;21125;48.630;9.276;2022-08-18T14:05:35;7.25;;;6.55;;
34914;SDS011;21125;48.630;9.276;2022-08-18T14:08:01;8.13;;;7.40;;
34914;SDS011;21125;48.630;9.276;2022-08-18T14:10:27;8.40;;;7.60;;
34914;SDS011;21125;48.630;9.276;2022-08-18T14:12:54;6.90;;;6.38;;
34914;SDS011;21125;48.630;9.276;2022-08-18T14:15:20;10.52;;;6.82;;
34914;SDS011;21125;48.630;9.276;2022-08-18T14:17:46;7.63;;;7.03;;
34914;SDS011;21125;48.630;9.276;2022-08-18T14:20:13;7.25;;;6.75;;
34914;SDS011;21125;48.630;9.276;2022-08-18T14:22:58;7.72;;;7.03;;
34914;SDS011;21125;48.630;9.276;2022-08-18T14:25:43;6.22;;;5.72;;
34914;SDS011;21125;48.630;9.276;2022-08-18T14:28:29;8.15;;;7.38;;
34914;SDS011;21125;48.630;9.276;2022-08-18T14:30:58;7.90;;;7.20;;
34914;SDS011;21125;48.630;9.276;2022-08-18T14:33:26;6.82;;;6.30;;
34914;SDS011;21125;48.630;9.276;2022-08-18T14:35:52;7.78;;;7.00;;
34914;SDS011;21125;48.630;9.276;2022-08-18T14:38:19;7.97;;;6.68;;
34914;SDS011;21125;48.630;9.276;2022-08-18T14:40:45;7.55;;;6.95;;
34914;SDS011;21125;48.630;9.276;2022-08-18T14:43:12;7.82;;;7.18;;
34914;SDS011;21125;48.630;9.276;2022-08-18T14:45:38;7.22;;;6.53;;
34914;SDS011;21125;48.630;9.276;2022-08-18T14:48:12;7.88;;;7.07;;
34914;SDS011;21125;48.630;9.276;2022-08-18T14:50:39;7.50;;;6.85;;
34914;SDS011;21125;48.630;9.276;2022-08-18T14:53:06;7.10;;;6.40;;
34914;SDS011;21125;48.630;9.276;2022-08-18T14:55:32;7.55;;;6.95;;
34914;SDS011;21125;48.630;9.276;2022-08-18T14:57:58;7.35;;;6.75;;
34914;SDS011;21125;48.630;9.276;2022-08-18T15:00:25;7.70;;;6.80;;
34914;SDS011;21125;48.630;9.276;2022-08-18T15:02:51;7.30;;;6.53;;
34914;SDS011;21125;48.630;9.276;2022-08-18T15:05:17;7.35;;;6.75;;
34914;SDS011;21125;48.630;9.276;2022-08-18T15:07:43;7.40;;;6.78;;
34914;SDS011;21125;48.630;9.276;2022-08-18T15:10:10;7.28;;;6.68;;
34914;SDS011;21125;48.630;9.276;2022-08-18T15:12:37;6.82;;;6.30;;
34914;SDS011;21125;48.630;9.276;2022-08-18T15:15:04;6.97;;;6.38;;
34914;SDS011;21125;48.630;9.276;2022-08-18T15:17:32;6.95;;;6.25;;
34914;SDS011;21125;48.630;9.276;2022-08-18T15:20:00;6.97;;;6.45;;
34914;SDS011;21125;48.630;9.276;2022-08-18T15:22:26;7.45;;;6.85;;
34914;SDS011;21125;48.630;9.276;2022-08-18T15:27:56;7.70;;;7.03;;
34914;SDS011;21125;48.630;9.276;2022-08-18T15:30:22;8.15;;;7.00;;
34914;SDS011;21125;48.630;9.276;2022-08-18T15:32:48;8.10;;;7.45;;
34914;SDS011;21125;48.630;9.276;2022-08-18T15:35:14;7.25;;;6.75;;
34914;SDS011;21125;48.630;9.276;2022-08-18T15:37:41;7.93;;;7.15;;
34914;SDS011;21125;48.630;9.276;2022-08-18T15:40:09;7.82;;;7.03;;
34914;SDS011;21125;48.630;9.276;2022-08-18T15:42:37;8.13;;;7.28;;
34914;SDS011;21125;48.630;9.276;2022-08-18T15:45:07;7.68;;;7.03;;
34914;SDS011;21125;48.630;9.276;2022-08-18T15:47:33;8.02;;;7.32;;
34914;SDS011;21125;48.630;9.276;2022-08-18T15:49:59;7.75;;;7.15;;
34914;SDS011;21125;48.630;9.276;2022-08-18T15:52:25;8.20;;;7.50;;
34914;SDS011;21125;48.630;9.276;2022-08-18T15:54:52;10.10;;;6.75;;
34914;SDS011;21125;48.630;9.276;2022-08-18T15:57:18;7.95;;;6.97;;
34914;SDS011;21125;48.630;9.276;2022-08-18T15:59:44;7.90;;;7.10;;
34914;SDS011;21125;48.630;9.276;2022-08-18T16:02:10;7.80;;;7.20;;
34914;SDS011;21125;48.630;9.276;2022-08-18T16:04:37;8.75;;;7.43;;
34914;SDS011;21125;48.630;9.276;2022-08-18T16:07:04;7.40;;;6.72;;
34914;SDS011;21125;48.630;9.276;2022-08-18T16:09:30;8.75;;;7.43;;
34914;SDS011;21125;48.630;9.276;2022-08-18T16:11:56;8.55;;;7.50;;
34914;SDS011;21125;48.630;9.276;2022-08-18T16:14:23;8.45;;;7.82;;
34914;SDS011;21125;48.630;9.276;2022-08-18T16:16:49;7.60;;;6.82;;
34914;SDS011;21125;48.630;9.276;2022-08-18T16:19:15;8.40;;;7.70;;
34914;SDS011;21125;48.630;9.276;2022-08-18T16:21:41;11.20;;;7.20;;
34914;SDS011;21125;48.630;9.276;2022-08-18T16:24:07;7.10;;;6.55;;
34914;SDS011;21125;48.630;9.276;2022-08-18T16:26:33;7.38;;;6.65;;
34914;SDS011;21125;48.630;9.276;2022-08-18T16:29:00;6.90;;;6.18;;
34914;SDS011;21125;48.630;9.276;2022-08-18T16:31:25;7.68;;;6.90;;
34914;SDS011;21125;48.630;9.276;2022-08-18T16:33:52;7.82;;;7.13;;
34914;SDS011;21125;48.630;9.276;2022-08-18T16:36:19;7.78;;;7.07;;
34914;SDS011;21125;48.630;9.276;2022-08-18T16:38:45;7.22;;;6.53;;
34914;SDS011;21125;48.630;9.276;2022-08-18T16:41:12;7.00;;;6.28;;
34914;SDS011;21125;48.630;9.276;2022-08-18T16:43:39;7.18;;;6.57;;
34914;SDS011;21125;48.630;9.276;2022-08-18T16:46:08;7.05;;;6.45;;
34914;SDS011;21125;48.630;9.276;2022-08-18T16:48:34;6.72;;;6.22;;
34914;SDS011;21125;48.630;9.276;2022-08-18T16:51:00;7.05;;;6.15;;
34914;SDS011;21125;48.630;9.276;2022-08-18T16:53:26;7.32;;;6.38;;
34914;SDS011;21125;48.630;9.276;2022-08-18T16:55:52;6.38;;;5.95;;
34914;SDS011;21125;48.630;9.276;2022-08-18T16:58:18;7.78;;;6.32;;
34914;SDS011;21125;48.630;9.276;2022-08-18T17:01:03;7.78;;;7.15;;